createdAt,value
2022-07-27T00:01:40.140Z,101995.94
2022-07-27T00:04:11.226Z,101996.09
2022-07-27T00:06:38.026Z,101998.75
2022-07-27T00:09:04.873Z,101993.41
2022-07-27T00:11:31.597Z,101989.03
2022-07-27T00:13:58.294Z,101999.75
2022-07-27T00:16:25.029Z,101997.19
2022-07-27T00:18:51.789Z,101990.16
2022-07-27T00:21:18.458Z,101983.97
2022-07-27T00:23:45.106Z,101997.34
2022-07-27T00:26:11.784Z,101993.81
2022-07-27T00:28:38.496Z,101996.50
2022-07-27T00:31:05.318Z,101999.19
2022-07-27T00:33:32.014Z,101997.50
2022-07-27T00:35:59.190Z,101995.81
2022-07-27T00:38:25.951Z,101991.44
2022-07-27T00:40:53.886Z,101994.13
2022-07-27T00:43:20.963Z,101995.09
2022-07-27T00:45:47.647Z,101989.75
2022-07-27T00:48:14.426Z,101993.41
2022-07-27T00:50:42.517Z,101988.88
2022-07-27T00:53:09.865Z,101994.38
2022-07-27T00:55:36.893Z,101991.72
2022-07-27T00:58:06.005Z,101986.50
2022-07-27T01:00:32.724Z,101991.84
2022-07-27T01:02:59.521Z,101986.63
2022-07-27T01:05:36.148Z,101989.28
2022-07-27T01:08:04.838Z,101989.28
2022-07-27T01:10:31.666Z,101995.63
2022-07-27T01:12:58.472Z,101991.28
2022-07-27T01:15:25.415Z,101990.28
2022-07-27T01:17:52.089Z,101992.97
2022-07-27T01:20:18.902Z,101987.88
2022-07-27T01:22:45.592Z,101992.22
2022-07-27T01:25:12.819Z,101998.56
2022-07-27T01:27:39.525Z,101990.69
2022-07-27T01:30:26.704Z,101986.19
2022-07-27T01:33:04.187Z,101984.50
2022-07-27T01:35:31.534Z,101991.00
2022-07-27T01:37:58.709Z,101982.81
2022-07-27T01:40:25.647Z,101983.09
2022-07-27T01:42:52.797Z,101983.09
2022-07-27T01:45:19.709Z,101976.06
2022-07-27T01:47:46.412Z,101981.41
2022-07-27T01:50:13.215Z,101977.72
2022-07-27T01:52:39.886Z,101974.38
2022-07-27T01:55:10.763Z,101977.72
2022-07-27T01:57:38.656Z,101978.88
2022-07-27T02:00:07.526Z,101974.38
2022-07-27T02:02:34.462Z,101971.00
2022-07-27T02:05:01.128Z,101970.16
2022-07-27T02:07:27.882Z,101974.66
2022-07-27T02:09:54.551Z,101975.50
2022-07-27T02:12:36.611Z,101972.81
2022-07-27T02:15:15.801Z,101972.97
2022-07-27T02:17:44.996Z,101971.25
2022-07-27T02:20:13.337Z,101965.91
2022-07-27T02:22:40.227Z,101964.22
2022-07-27T02:25:08.003Z,101971.41
2022-07-27T02:27:34.835Z,101966.91
2022-07-27T02:30:01.696Z,101971.69
2022-07-27T02:32:28.583Z,101964.50
2022-07-27T02:34:55.306Z,101968.19
2022-07-27T02:37:22.028Z,101964.50
2022-07-27T02:39:49.148Z,101960.84
2022-07-27T02:42:15.823Z,101967.19
2022-07-27T02:44:42.626Z,101966.19
2022-07-27T02:47:09.306Z,101971.56
2022-07-27T02:49:36.052Z,101964.50
2022-07-27T02:52:03.063Z,101963.53
2022-07-27T02:54:32.592Z,101962.84
2022-07-27T02:57:03.003Z,101970.72
2022-07-27T02:59:29.692Z,101962.84
2022-07-27T03:01:56.468Z,101963.66
2022-07-27T03:04:23.505Z,101962.84
2022-07-27T03:06:50.216Z,101966.50
2022-07-27T03:09:16.957Z,101970.13
2022-07-27T03:11:43.679Z,101966.75
2022-07-27T03:14:10.437Z,101978.31
2022-07-27T03:16:37.160Z,101974.94
2022-07-27T03:19:03.919Z,101974.94
2022-07-27T03:21:30.743Z,101983.09
2022-07-27T03:23:57.405Z,101977.75
2022-07-27T03:26:24.095Z,101975.19
2022-07-27T03:28:50.787Z,101975.19
2022-07-27T03:31:17.591Z,101972.66
2022-07-27T03:33:44.397Z,101969.28
2022-07-27T03:36:11.094Z,101978.31
2022-07-27T03:38:37.789Z,101981.81
2022-07-27T03:41:05.067Z,101983.66
2022-07-27T03:43:31.754Z,101983.66
2022-07-27T03:45:58.458Z,101983.66
2022-07-27T03:48:25.232Z,101983.66
2022-07-27T03:50:51.941Z,101981.97
2022-07-27T03:53:19.163Z,101983.78
2022-07-27T03:55:45.870Z,101972.25
2022-07-27T03:58:12.546Z,101990.25
2022-07-27T04:00:39.299Z,101980.53
2022-07-27T04:03:06.228Z,101978.72
2022-07-27T04:05:32.951Z,101980.53
2022-07-27T04:07:59.676Z,101979.84
2022-07-27T04:10:30.002Z,101981.66
2022-07-27T04:12:58.689Z,101976.31
2022-07-27T04:15:26.148Z,101980.84
2022-07-27T04:17:56.851Z,101980.84
2022-07-27T04:20:24.418Z,101982.78
2022-07-27T04:22:51.088Z,101981.09
2022-07-27T04:25:17.832Z,101987.28
2022-07-27T04:27:44.584Z,101988.41
2022-07-27T04:30:11.707Z,101985.59
2022-07-27T04:32:38.697Z,101999.09
2022-07-27T04:35:06.643Z,101997.28
2022-07-27T04:37:33.681Z,102000.09
2022-07-27T04:40:01.125Z,101995.72
2022-07-27T04:42:28.706Z,102001.09
2022-07-27T04:44:55.513Z,102000.25
2022-07-27T04:47:22.299Z,101997.69
2022-07-27T04:49:48.997Z,102001.34
2022-07-27T04:52:16.367Z,102001.34
2022-07-27T04:54:43.374Z,102002.19
2022-07-27T04:57:10.053Z,101999.66
2022-07-27T04:59:36.852Z,102003.31
2022-07-27T05:02:03.773Z,102007.81
2022-07-27T05:04:30.552Z,102003.31
2022-07-27T05:06:57.879Z,102010.50
2022-07-27T05:09:24.688Z,102017.66
2022-07-27T05:11:52.155Z,102019.91
2022-07-27T05:14:19.734Z,102019.25
2022-07-27T05:16:48.152Z,102016.69
2022-07-27T05:19:15.423Z,102024.25
2022-07-27T05:21:42.364Z,102029.00
2022-07-27T05:24:10.309Z,102023.09
2022-07-27T05:26:37.520Z,102025.06
2022-07-27T05:29:04.485Z,102030.53
2022-07-27T05:31:31.376Z,102028.72
2022-07-27T05:33:58.750Z,102025.19
2022-07-27T05:36:26.044Z,102025.59
2022-07-27T05:38:52.782Z,102025.50
2022-07-27T05:41:24.040Z,102034.81
2022-07-27T05:43:50.847Z,102032.31
2022-07-27T05:46:17.682Z,102034.22
2022-07-27T05:48:44.553Z,102036.34
2022-07-27T05:51:11.497Z,102033.78
2022-07-27T05:53:38.261Z,102036.59
2022-07-27T05:56:05.563Z,102035.59
2022-07-27T05:58:32.268Z,102036.59
2022-07-27T06:00:59.127Z,102037.44
2022-07-27T06:03:26.461Z,102033.44
2022-07-27T06:06:13.543Z,102047.41
2022-07-27T06:08:40.277Z,102039.69
2022-07-27T06:11:06.964Z,102038.72
2022-07-27T06:13:36.683Z,102050.56
2022-07-27T06:16:04.288Z,102044.25
2022-07-27T06:18:31.253Z,102052.25
2022-07-27T06:20:58.101Z,102043.03
2022-07-27T06:23:24.955Z,102045.19
2022-07-27T06:25:51.658Z,102044.28
2022-07-27T06:28:19.422Z,102042.66
2022-07-27T06:30:46.910Z,102047.25
2022-07-27T06:33:14.680Z,102049.38
2022-07-27T06:35:42.015Z,102047.06
2022-07-27T06:38:10.365Z,102041.47
2022-07-27T06:40:37.034Z,102039.84
2022-07-27T06:43:03.779Z,102041.00
2022-07-27T06:45:30.689Z,102034.16
2022-07-27T06:47:57.680Z,102040.66
2022-07-27T06:50:24.626Z,102044.75
2022-07-27T06:52:51.420Z,102043.34
2022-07-27T06:55:18.176Z,102050.97
2022-07-27T06:57:46.446Z,102043.66
2022-07-27T07:00:14.151Z,102052.13
2022-07-27T07:02:51.807Z,102048.47
2022-07-27T07:05:18.763Z,102041.16
2022-07-27T07:07:45.472Z,102045.41
2022-07-27T07:10:12.139Z,102045.13
2022-07-27T07:12:38.835Z,102050.22
2022-07-27T07:15:06.234Z,102050.09
2022-07-27T07:17:32.930Z,102050.81
2022-07-27T07:19:59.679Z,102059.53
2022-07-27T07:22:26.861Z,102061.25
2022-07-27T07:24:53.517Z,102055.63
2022-07-27T07:27:23.542Z,102065.19
2022-07-27T07:29:50.561Z,102067.75
2022-07-27T07:32:17.421Z,102060.44
2022-07-27T07:34:44.099Z,102057.63
2022-07-27T07:37:10.840Z,102056.78
2022-07-27T07:39:37.515Z,102063.81
2022-07-27T07:42:04.186Z,102059.44
2022-07-27T07:44:31.378Z,102061.13
2022-07-27T07:46:58.183Z,102059.16
2022-07-27T07:49:33.334Z,102058.31
2022-07-27T07:52:06.536Z,102057.34
2022-07-27T07:54:33.425Z,102065.25
2022-07-27T07:57:00.120Z,102068.03
2022-07-27T07:59:26.856Z,102059.16
2022-07-27T08:01:53.585Z,102060.16
2022-07-27T08:04:20.348Z,102066.50
2022-07-27T08:06:47.048Z,102073.66
2022-07-27T08:09:21.575Z,102070.00
2022-07-27T08:11:48.268Z,102062.81
2022-07-27T08:14:15.033Z,102070.84
2022-07-27T08:16:41.731Z,102065.50
2022-07-27T08:19:09.325Z,102061.84
2022-07-27T08:21:36.366Z,102063.56
2022-07-27T08:24:03.210Z,102067.91
2022-07-27T08:26:29.922Z,102068.63
2022-07-27T08:28:56.595Z,102066.66
2022-07-27T08:31:51.028Z,102070.06
2022-07-27T08:34:13.026Z,102064.72
2022-07-27T08:36:39.710Z,102070.75
2022-07-27T08:39:08.975Z,102061.88
2022-07-27T08:41:39.879Z,102067.25
2022-07-27T08:44:13.580Z,102062.72
2022-07-27T08:46:40.889Z,102056.81
2022-07-27T08:49:09.008Z,102065.66
2022-07-27T08:51:35.939Z,102065.09
2022-07-27T08:54:02.690Z,102068.63
2022-07-27T08:56:29.396Z,102068.63
2022-07-27T08:58:56.066Z,102065.94
2022-07-27T09:01:22.915Z,102069.47
2022-07-27T09:03:49.687Z,102063.28
2022-07-27T09:06:42.843Z,102065.94
2022-07-27T09:09:10.732Z,102069.16
2022-07-27T09:11:37.914Z,102063.66
2022-07-27T09:14:07.230Z,102062.75
2022-07-27T09:17:14.787Z,102065.97
2022-07-27T09:19:22.084Z,102060.84
2022-07-27T09:21:48.770Z,102064.81
2022-07-27T09:24:44.477Z,102068.72
2022-07-27T09:27:03.896Z,102067.41
2022-07-27T09:29:34.577Z,102063.03
2022-07-27T09:32:01.279Z,102070.34
2022-07-27T09:34:34.611Z,102070.59
2022-07-27T09:37:05.543Z,102071.03
2022-07-27T09:39:32.879Z,102075.06
2022-07-27T09:42:01.474Z,102067.19
2022-07-27T09:44:43.281Z,102061.31
2022-07-27T09:47:28.163Z,102062.16
2022-07-27T09:50:17.486Z,102062.03
2022-07-27T09:52:44.684Z,102069.44
2022-07-27T09:55:11.517Z,102067.50
2022-07-27T09:57:58.160Z,102067.38
2022-07-27T10:00:26.886Z,102063.56
2022-07-27T10:02:54.233Z,102067.81
2022-07-27T10:05:24.395Z,102056.59
2022-07-27T10:07:53.536Z,102054.19
2022-07-27T10:10:21.011Z,102059.53
2022-07-27T10:12:53.991Z,102055.88
2022-07-27T10:15:22.671Z,102058.53
2022-07-27T10:17:57.023Z,102058.00
2022-07-27T10:20:24.210Z,102054.22
2022-07-27T10:22:52.313Z,102048.75
2022-07-27T10:25:19.947Z,102052.13
2022-07-27T10:27:48.731Z,102043.97
2022-07-27T10:30:17.502Z,102039.22
2022-07-27T10:32:51.518Z,102044.28
2022-07-27T10:35:36.584Z,102040.38
2022-07-27T10:38:18.434Z,102037.47
2022-07-27T10:40:45.341Z,102039.00
2022-07-27T10:43:22.013Z,102042.25
2022-07-27T10:46:01.701Z,102043.09
2022-07-27T10:48:39.603Z,102034.81
2022-07-27T10:51:09.322Z,102037.38
2022-07-27T10:54:09.428Z,102035.41
2022-07-27T10:56:45.269Z,102032.03
2022-07-27T10:59:11.811Z,102024.94
2022-07-27T11:01:56.339Z,102031.28
2022-07-27T11:04:24.370Z,102019.63
2022-07-27T11:07:23.691Z,102024.00
2022-07-27T11:12:29.773Z,102031.38
2022-07-27T11:14:58.293Z,102035.94
2022-07-27T11:17:52.831Z,102040.03
2022-07-27T11:20:16.320Z,102043.56
2022-07-27T11:23:26.642Z,102039.91
2022-07-27T11:25:30.141Z,102035.53
2022-07-27T11:27:56.907Z,102038.91
2022-07-27T11:30:28.027Z,102038.78
2022-07-27T11:32:55.558Z,102038.78
2022-07-27T11:35:22.684Z,102044.97
2022-07-27T11:38:00.182Z,102043.13
2022-07-27T11:43:14.556Z,102044.34
2022-07-27T11:45:43.146Z,102042.56
2022-07-27T11:48:13.013Z,102033.41
2022-07-27T11:50:58.808Z,102028.91
2022-07-27T11:53:27.260Z,102027.81
2022-07-27T11:55:53.954Z,102025.16
2022-07-27T11:58:20.706Z,102013.47
2022-07-27T12:00:47.405Z,102022.19
2022-07-27T12:03:21.228Z,102023.03
2022-07-27T12:05:51.582Z,102019.38
2022-07-27T12:08:18.982Z,102028.53
2022-07-27T12:10:58.865Z,102021.34
2022-07-27T12:13:37.380Z,102027.66
2022-07-27T12:16:04.456Z,102020.50
2022-07-27T12:18:43.849Z,102011.50
2022-07-27T12:21:19.793Z,102012.34
2022-07-27T12:23:53.493Z,102015.16
2022-07-27T12:26:25.052Z,102011.03
2022-07-27T12:29:11.351Z,102012.75
2022-07-27T12:31:48.638Z,102005.00
2022-07-27T12:34:15.779Z,102009.34
2022-07-27T12:36:42.992Z,102015.44
2022-07-27T12:39:26.765Z,102003.03
2022-07-27T12:42:04.942Z,101995.72
2022-07-27T12:44:36.327Z,101992.06
2022-07-27T12:47:27.447Z,101990.09
2022-07-27T12:50:11.381Z,101986.72
2022-07-27T12:52:51.331Z,101987.72
2022-07-27T12:55:22.582Z,101985.75
2022-07-27T12:57:57.576Z,101988.41
2022-07-27T13:00:32.711Z,101981.09
2022-07-27T13:03:01.211Z,101995.44
2022-07-27T13:05:27.961Z,101999.66
2022-07-27T13:07:54.708Z,101993.47
2022-07-27T13:10:21.756Z,101987.88
2022-07-27T13:12:48.793Z,101975.47
2022-07-27T13:15:16.314Z,101973.50
2022-07-27T13:17:43.975Z,101968.44
2022-07-27T13:20:11.531Z,101967.31
2022-07-27T13:22:39.792Z,101961.81
2022-07-27T13:25:16.355Z,101954.50
2022-07-27T13:27:47.099Z,101949.88
2022-07-27T13:30:16.028Z,101946.22
2022-07-27T13:32:43.390Z,101939.72
2022-07-27T13:35:12.536Z,101941.28
2022-07-27T13:37:39.959Z,101943.09
2022-07-27T13:40:08.057Z,101943.09
2022-07-27T13:42:35.018Z,101946.66
2022-07-27T13:45:09.086Z,101949.03
2022-07-27T13:47:37.047Z,101941.69
2022-07-27T13:50:04.710Z,101942.53
2022-07-27T13:52:31.442Z,101942.53
2022-07-27T13:54:58.121Z,101937.19
2022-07-27T13:57:24.817Z,101925.66
2022-07-27T13:59:51.517Z,101925.66
2022-07-27T14:02:20.644Z,101934.66
2022-07-27T14:04:50.165Z,101921.44
2022-07-27T14:07:17.333Z,101916.94
2022-07-27T14:10:02.469Z,101918.63
2022-07-27T14:12:29.422Z,101915.25
2022-07-27T14:14:56.170Z,101929.31
2022-07-27T14:17:23.329Z,101925.66
2022-07-27T14:19:50.109Z,101919.47
2022-07-27T14:22:16.854Z,101921.97
2022-07-27T14:24:43.595Z,101930.00
2022-07-27T14:27:10.372Z,101929.91
2022-07-27T14:29:37.146Z,101921.97
2022-07-27T14:32:04.215Z,101926.38
2022-07-27T14:34:31.006Z,101934.41
2022-07-27T14:36:57.800Z,101931.72
2022-07-27T14:39:24.552Z,101921.97
2022-07-27T14:41:51.330Z,101917.63
2022-07-27T14:44:18.976Z,101918.91
2022-07-27T14:46:46.657Z,101916.25
2022-07-27T14:49:14.943Z,101915.50
2022-07-27T14:51:42.029Z,101917.22
2022-07-27T14:54:08.917Z,101914.25
2022-07-27T14:56:36.738Z,101910.44
2022-07-27T14:59:04.302Z,101913.53
2022-07-27T15:01:31.191Z,101914.38
2022-07-27T15:03:58.032Z,101907.91
2022-07-27T15:06:24.796Z,101902.44
2022-07-27T15:08:51.474Z,101900.59
2022-07-27T15:11:18.166Z,101909.31
2022-07-27T15:13:44.986Z,101896.78
2022-07-27T15:16:12.172Z,101895.78
2022-07-27T15:18:39.281Z,101902.81
2022-07-27T15:21:12.624Z,101902.97
2022-07-27T15:23:43.856Z,101892.44
2022-07-27T15:26:12.098Z,101896.34
2022-07-27T15:28:39.488Z,101893.00
2022-07-27T15:31:06.228Z,101893.00
2022-07-27T15:33:33.055Z,101892.28
2022-07-27T15:35:59.779Z,101893.28
2022-07-27T15:38:26.467Z,101887.09
2022-07-27T15:40:53.185Z,101889.63
2022-07-27T15:43:20.386Z,101874.25
2022-07-27T15:45:49.504Z,101865.97
2022-07-27T15:48:18.008Z,101862.41
2022-07-27T15:50:48.692Z,101867.66
2022-07-27T15:53:16.017Z,101855.97
2022-07-27T15:55:43.516Z,101861.00
2022-07-27T15:58:10.916Z,101857.22
2022-07-27T16:00:40.890Z,101859.75
2022-07-27T16:03:09.001Z,101863.41
2022-07-27T16:05:35.728Z,101858.06
2022-07-27T16:08:02.419Z,101863.41
2022-07-27T16:10:30.088Z,101860.75
2022-07-27T16:12:57.310Z,101855.41
2022-07-27T16:15:42.898Z,101853.72
2022-07-27T16:18:10.092Z,101846.53
2022-07-27T16:20:36.962Z,101855.41
2022-07-27T16:23:17.600Z,101854.25
2022-07-27T16:26:02.491Z,101855.25
2022-07-27T16:28:30.733Z,101850.44
2022-07-27T16:30:58.060Z,101846.78
2022-07-27T16:33:25.070Z,101844.81
2022-07-27T16:35:51.794Z,101846.53
2022-07-27T16:38:20.037Z,101855.25
2022-07-27T16:40:46.684Z,101838.34
2022-07-27T16:43:13.395Z,101848.91
2022-07-27T16:45:40.057Z,101839.19
2022-07-27T16:48:06.911Z,101836.34
2022-07-27T16:50:33.626Z,101837.22
2022-07-27T16:53:01.615Z,101828.22
2022-07-27T16:55:28.552Z,101825.38
2022-07-27T16:57:56.071Z,101835.25
2022-07-27T17:00:23.037Z,101827.91
2022-07-27T17:02:50.234Z,101832.41
2022-07-27T17:05:16.945Z,101833.25
2022-07-27T17:07:43.873Z,101829.59
2022-07-27T17:10:10.758Z,101829.59
2022-07-27T17:12:38.829Z,101821.41
2022-07-27T17:15:07.032Z,101822.28
2022-07-27T17:17:33.965Z,101831.00
2022-07-27T17:20:00.667Z,101823.97
2022-07-27T17:22:27.370Z,101823.97
2022-07-27T17:24:54.244Z,101821.97
2022-07-27T17:27:22.042Z,101829.00
2022-07-27T17:29:49.054Z,101816.63
2022-07-27T17:32:15.740Z,101819.97
2022-07-27T17:34:43.568Z,101814.63
2022-07-27T17:37:10.338Z,101814.63
2022-07-27T17:39:37.088Z,101812.78
2022-07-27T17:42:04.413Z,101821.66
2022-07-27T17:44:32.513Z,101823.38
2022-07-27T17:47:01.221Z,101818.03
2022-07-27T17:49:28.162Z,101812.66
2022-07-27T17:51:55.046Z,101807.31
2022-07-27T17:54:23.619Z,101801.97
2022-07-27T17:56:50.359Z,101808.16
2022-07-27T17:59:37.067Z,101807.31
2022-07-27T18:02:05.077Z,101810.97
2022-07-27T18:04:37.100Z,101810.97
2022-07-27T18:07:05.795Z,101811.81
2022-07-27T18:09:32.552Z,101812.66
2022-07-27T18:11:59.495Z,101815.34
2022-07-27T18:14:26.202Z,101821.66
2022-07-27T18:16:52.901Z,101823.38
2022-07-27T18:19:19.589Z,101825.34
2022-07-27T18:21:46.329Z,101832.38
2022-07-27T18:24:13.118Z,101829.69
2022-07-27T18:26:40.280Z,101832.38
2022-07-27T18:29:07.570Z,101833.38
2022-07-27T18:31:35.041Z,101841.41
2022-07-27T18:34:02.382Z,101834.34
2022-07-27T18:36:29.557Z,101834.34
2022-07-27T18:38:57.446Z,101845.06
2022-07-27T18:41:25.049Z,101846.75
2022-07-27T18:43:51.775Z,101842.38
2022-07-27T18:46:23.037Z,101845.06
2022-07-27T18:48:50.325Z,101844.38
2022-07-27T18:51:17.268Z,101852.41
2022-07-27T18:53:45.129Z,101847.91
2022-07-27T18:56:12.250Z,101845.22
2022-07-27T18:58:40.698Z,101848.72
2022-07-27T19:01:09.795Z,101853.25
2022-07-27T19:03:37.342Z,101851.56
2022-07-27T19:06:07.479Z,101854.25
2022-07-27T19:08:35.370Z,101845.38
2022-07-27T19:11:02.041Z,101843.69
2022-07-27T19:13:28.801Z,101844.53
2022-07-27T19:15:55.720Z,101844.53
2022-07-27T19:18:25.213Z,101841.84
2022-07-27T19:20:53.089Z,101836.63
2022-07-27T19:23:19.938Z,101841.00
2022-07-27T19:25:47.231Z,101849.03
2022-07-27T19:28:16.157Z,101847.31
2022-07-27T19:30:43.027Z,101850.00
2022-07-27T19:33:10.434Z,101856.34
2022-07-27T19:35:37.187Z,101857.19
2022-07-27T19:38:04.338Z,101859.75
2022-07-27T19:40:46.699Z,101860.72
2022-07-27T19:43:15.026Z,101869.56
2022-07-27T19:45:42.185Z,101866.91
2022-07-27T19:48:09.112Z,101864.22
2022-07-27T19:50:35.879Z,101865.22
2022-07-27T19:53:02.846Z,101862.53
2022-07-27T19:55:29.660Z,101872.41
2022-07-27T19:57:56.712Z,101874.09
2022-07-27T20:00:23.552Z,101869.72
2022-07-27T20:02:50.459Z,101876.06
2022-07-27T20:05:17.263Z,101877.75
2022-07-27T20:07:44.143Z,101881.44
2022-07-27T20:10:11.208Z,101881.44
2022-07-27T20:12:40.123Z,101885.78
2022-07-27T20:15:07.538Z,101889.31
2022-07-27T20:17:37.225Z,101881.16
2022-07-27T20:20:08.010Z,101874.09
2022-07-27T20:22:34.837Z,101876.91
2022-07-27T20:25:02.496Z,101878.59
2022-07-27T20:27:29.177Z,101883.09
2022-07-27T20:29:55.857Z,101877.75
2022-07-27T20:32:22.602Z,101886.78
2022-07-27T20:34:49.267Z,101883.41
2022-07-27T20:37:16.333Z,101889.44
2022-07-27T20:39:43.187Z,101892.13
2022-07-27T20:42:11.042Z,101885.94
2022-07-27T20:44:37.746Z,101885.78
2022-07-27T20:47:04.485Z,101884.78
2022-07-27T20:49:31.225Z,101877.75
2022-07-27T20:51:58.196Z,101877.75
2022-07-27T20:54:29.187Z,101882.28
2022-07-27T20:56:56.492Z,101885.78
2022-07-27T20:59:23.581Z,101888.47
2022-07-27T21:01:50.585Z,101889.31
2022-07-27T21:04:19.207Z,101883.09
2022-07-27T21:06:46.206Z,101884.94
2022-07-27T21:09:13.267Z,101883.09
2022-07-27T21:11:40.254Z,101881.44
2022-07-27T21:14:07.925Z,101877.06
2022-07-27T21:16:34.658Z,101883.25
2022-07-27T21:19:01.436Z,101883.25
2022-07-27T21:21:28.719Z,101878.06
2022-07-27T21:24:14.731Z,101878.06
2022-07-27T21:26:50.092Z,101880.03
2022-07-27T21:29:17.944Z,101881.72
2022-07-27T21:31:49.369Z,101880.03
2022-07-27T21:34:19.665Z,101878.34
2022-07-27T21:36:47.084Z,101882.84
2022-07-27T21:39:14.037Z,101883.69
2022-07-27T21:41:40.959Z,101884.53
2022-07-27T21:44:07.747Z,101882.00
2022-07-27T21:46:34.479Z,101883.69
2022-07-27T21:49:01.274Z,101891.72
2022-07-27T21:51:28.001Z,101892.69
2022-07-27T21:53:54.748Z,101883.00
2022-07-27T21:56:21.641Z,101879.47
2022-07-27T21:58:49.073Z,101880.31
2022-07-27T22:01:16.714Z,101874.13
2022-07-27T22:03:43.971Z,101880.31
2022-07-27T22:06:10.868Z,101879.47
2022-07-27T22:08:38.206Z,101881.44
2022-07-27T22:11:05.574Z,101876.91
2022-07-27T22:13:32.680Z,101880.59
2022-07-27T22:15:59.418Z,101880.59
2022-07-27T22:18:26.356Z,101885.09
2022-07-27T22:20:53.078Z,101886.94
2022-07-27T22:23:19.823Z,101878.91
2022-07-27T22:25:46.584Z,101878.03
2022-07-27T22:28:13.461Z,101874.50
2022-07-27T22:30:40.628Z,101874.38
2022-07-27T22:33:08.187Z,101871.97
2022-07-27T22:35:35.119Z,101875.50
2022-07-27T22:38:02.208Z,101875.50
2022-07-27T22:40:29.002Z,101879.16
2022-07-27T22:42:55.937Z,101871.16
2022-07-27T22:45:23.287Z,101867.63
2022-07-27T22:47:50.631Z,101878.34
2022-07-27T22:50:20.474Z,101884.53
2022-07-27T22:52:47.913Z,101886.50
2022-07-27T22:55:15.348Z,101888.19
2022-07-27T22:57:42.105Z,101885.66
2022-07-27T23:00:09.387Z,101881.16
2022-07-27T23:02:36.117Z,101879.47
2022-07-27T23:05:02.962Z,101881.16
2022-07-27T23:07:29.707Z,101874.97
2022-07-27T23:09:56.964Z,101866.09
2022-07-27T23:12:24.416Z,101862.56
2022-07-27T23:14:51.190Z,101867.09
2022-07-27T23:17:17.958Z,101872.44
2022-07-27T23:19:44.701Z,101872.44
2022-07-27T23:22:11.508Z,101870.72
2022-07-27T23:24:40.166Z,101861.84
2022-07-27T23:27:07.915Z,101870.72
2022-07-27T23:29:34.653Z,101865.38
2022-07-27T23:32:03.163Z,101864.69
2022-07-27T23:34:30.050Z,101873.41
2022-07-27T23:36:56.739Z,101869.03
2022-07-27T23:39:23.462Z,101863.84
2022-07-27T23:41:50.425Z,101866.50
2022-07-27T23:44:17.686Z,101866.50
2022-07-27T23:46:44.597Z,101872.00
2022-07-27T23:49:11.741Z,101864.69
2022-07-27T23:51:38.463Z,101865.66
2022-07-27T23:54:05.329Z,101864.81
2022-07-27T23:56:31.990Z,101864.00
2022-07-27T23:58:58.718Z,101868.50
